»·PEaware :: UAL990 KSFO-LFPG

UAL990 :: KSFO-LFPG

FLIGHT INFORMATION

Flight Status: Arrived
Operator:
United Airlines
More flights by this operator :: More flights under this callsign
Pilot: Drew L. (13237)
Aircraft: Unknown
(B77L)
More flights by this aircraft type
Origin: KSFO San Francisco Intl
United States
Destination: LFPG Charles-De-Gaulle
France
More flights between these airports :: More routes between these airports
Route: NIITE3 ORRCA FMG KU78M KU87Q KU06U/N0484F370 DIK VBI ELVEL SCAL CHARN FASSA LOPVI/M084F370 PIDSO 61N050W/M084F390 61N040W 60N030W 58N020W SUNOT KESIX/N0486F390 REVNU BAKUR UN546 STU UP2 NIGIT UL18 SFD UM605 XIDIL M605 BIBAX BIBA8W
File this flight plan on PilotEdge
Remarks: PBN / A1B1C1D1L1O1S2 DOF / 180401 REG / N712SB EET / KZLC0035 KZMP0159 CZWG0236 KZMP0238 CZWG0240 CZUL0354 CZQX0513 BGGL0549 61N050W0558 CZQX0614 61N040W0634 EGGX0711 58N020W0750 EISN0837 EGTT0903 LFFF0935 OPR / UAL PER / D RALT / CYBG BGSF RMK / TCAS SIMBRIEF
Altitude:
(Current/Filed)
35,000ft
Speed:
(Current/Filed)
484kts
Departed: 31-Mar-18 11:07 PM
Arrived: 01-Apr-18 09:09 AM
Distance/Time
Traveled:
4837nm/10:02
Distance/Time
To Go:
Arrived

Flight Plot

Page will automatically refresh every two minutes.

Flight plan parsing failed; only flown route is shown


Map Options




Map Legend


Flown Route
Filed Route
Departure Airport
Arrival Airport
Navaid (VOR, NDB)
Fix

Horizontal Profiles

Position Reports

Time Latitude Longitude Heading Altitude Ground
Speed
31-Mar-18 22:34 37.619204 -122.393257 208 26ft 0kts
31-Mar-18 22:35 37.619204 -122.393257 208 26ft 0kts
31-Mar-18 22:36 37.619204 -122.393257 208 26ft 0kts
31-Mar-18 22:37 37.619204 -122.393257 208 26ft 0kts
31-Mar-18 22:38 37.619204 -122.393257 208 26ft 0kts
31-Mar-18 22:39 37.619204 -122.393257 208 26ft 0kts
31-Mar-18 22:40 37.619204 -122.393257 208 26ft 0kts
31-Mar-18 22:41 37.619204 -122.393257 208 26ft 0kts
31-Mar-18 22:42 37.619204 -122.393257 208 26ft 0kts
31-Mar-18 22:43 37.619204 -122.393257 208 26ft 0kts
31-Mar-18 22:44 37.619204 -122.393257 208 26ft 0kts
31-Mar-18 22:45 37.619204 -122.393257 208 26ft 0kts
31-Mar-18 22:46 37.619204 -122.393257 208 26ft 0kts
31-Mar-18 22:47 37.619204 -122.393257 208 26ft 0kts
31-Mar-18 22:48 37.619204 -122.393257 208 26ft 0kts
31-Mar-18 22:49 37.619204 -122.393257 208 26ft 0kts
31-Mar-18 22:50 37.619204 -122.393257 208 26ft 0kts
31-Mar-18 22:51 37.619204 -122.393257 208 26ft 0kts
31-Mar-18 22:52 37.619204 -122.393257 208 26ft 0kts
31-Mar-18 22:53 37.619543 -122.393064 194 26ft 2kts
31-Mar-18 22:54 37.620065 -122.393167 118 26ft 2kts
31-Mar-18 22:55 37.620116 -122.393288 117 26ft 0kts
31-Mar-18 22:56 37.620116 -122.393288 117 26ft 0kts
31-Mar-18 22:57 37.620345 -122.392348 28 26ft 9kts
31-Mar-18 22:58 37.621788 -122.391373 26 26ft 7kts
31-Mar-18 22:59 37.622564 -122.389031 107 26ft 14kts
31-Mar-18 23:00 37.620152 -122.383182 117 26ft 28kts
31-Mar-18 23:01 37.617529 -122.376164 111 26ft 22kts
31-Mar-18 23:02 37.614983 -122.369789 120 26ft 16kts
31-Mar-18 23:03 37.611696 -122.363032 117 26ft 23kts
31-Mar-18 23:04 37.611628 -122.358555 9 26ft 4kts
31-Mar-18 23:05 37.612386 -122.359843 297 26ft 29kts
31-Mar-18 23:06 37.631234 -122.401316 312 1550ft 183kts
31-Mar-18 23:07 37.685258 -122.380700 36 3937ft 266kts
31-Mar-18 23:08 37.751172 -122.345301 348 7633ft 274kts
31-Mar-18 23:09 37.825751 -122.376593 339 10902ft 300kts
31-Mar-18 23:10 37.918396 -122.377456 24 12993ft 376kts
31-Mar-18 23:11 37.997325 -122.283890 45 16428ft 398kts
31-Mar-18 23:12 38.068841 -122.173493 50 19674ft 416kts
31-Mar-18 23:13 38.141243 -122.053537 50 22402ft 437kts
31-Mar-18 23:14 38.217347 -121.928565 50 24843ft 460kts
31-Mar-18 23:15 38.297472 -121.796323 49 26967ft 485kts
31-Mar-18 23:16 38.381168 -121.656379 49 29040ft 506kts
31-Mar-18 23:17 38.467385 -121.511614 50 31212ft 516kts
31-Mar-18 23:18 38.553810 -121.364166 50 33205ft 520kts
31-Mar-18 23:19 38.640557 -121.215383 50 34888ft 523kts
31-Mar-18 23:20 38.713526 -121.091314 50 34943ft 521kts
31-Mar-18 23:21 38.800041 -120.942726 50 34991ft 521kts
31-Mar-18 23:22 38.900591 -120.768855 50 35005ft 520kts
31-Mar-18 23:23 38.986755 -120.619090 50 35068ft 520kts
31-Mar-18 23:24 39.058140 -120.494515 50 35097ft 519kts
31-Mar-18 23:25 39.143454 -120.344929 50 35114ft 519kts
31-Mar-18 23:26 39.228771 -120.194656 50 35131ft 518kts
31-Mar-18 23:27 39.313447 -120.044819 50 35137ft 517kts
31-Mar-18 23:28 39.412256 -119.869714 50 35090ft 519kts
31-Mar-18 23:29 39.482761 -119.743248 50 35070ft 518kts
31-Mar-18 23:30 39.569439 -119.594873 45 35067ft 515kts
31-Mar-18 23:31 39.664273 -119.455981 44 35058ft 515kts
31-Mar-18 23:32 39.758406 -119.314630 45 35047ft 517kts
31-Mar-18 23:33 39.852730 -119.173581 44 35036ft 518kts
31-Mar-18 23:34 39.946791 -119.031223 45 35027ft 520kts
31-Mar-18 23:35 40.041133 -118.887574 44 35018ft 518kts
31-Mar-18 23:36 40.134472 -118.744815 44 35012ft 518kts
31-Mar-18 23:37 40.228323 -118.600585 44 35011ft 520kts
31-Mar-18 23:38 40.321881 -118.456127 44 35012ft 521kts
31-Mar-18 23:39 40.415469 -118.310941 44 35014ft 522kts
31-Mar-18 23:40 40.509217 -118.164817 44 35017ft 522kts
31-Mar-18 23:41 40.602430 -118.018900 45 35020ft 521kts
31-Mar-18 23:42 40.695637 -117.872164 44 35019ft 525kts
31-Mar-18 23:43 40.789281 -117.724093 44 35019ft 524kts
31-Mar-18 23:44 40.882341 -117.576232 44 35019ft 524kts
31-Mar-18 23:45 40.975296 -117.427822 44 35018ft 524kts
31-Mar-18 23:46 41.068309 -117.278590 44 35016ft 524kts
31-Mar-18 23:47 41.160867 -117.129365 44 35015ft 524kts
31-Mar-18 23:48 41.253622 -116.979096 44 35015ft 525kts
31-Mar-18 23:49 41.346082 -116.828531 44 35006ft 526kts
31-Mar-18 23:50 41.438465 -116.677456 44 35007ft 526kts
31-Mar-18 23:51 41.530748 -116.525497 45 35004ft 527kts
31-Mar-18 23:52 41.622505 -116.373960 44 35001ft 530kts
31-Mar-18 23:53 41.715688 -116.219103 44 34992ft 532kts
31-Mar-18 23:54 41.807823 -116.065265 44 35000ft 530kts
31-Mar-18 23:55 41.898630 -115.912859 44 34991ft 523kts
31-Mar-18 23:56 41.989039 -115.760432 44 34992ft 527kts
31-Mar-18 23:57 42.081081 -115.604352 44 34977ft 523kts
31-Mar-18 23:58 42.171106 -115.450963 45 34980ft 526kts
31-Mar-18 23:59 42.261909 -115.295382 45 34979ft 526kts
01-Apr-18 00:00 42.352209 -115.139887 45 34979ft 527kts
01-Apr-18 00:01 42.442389 -114.983793 45 34979ft 527kts
01-Apr-18 00:02 42.532789 -114.826496 45 34980ft 529kts
01-Apr-18 00:03 42.622826 -114.669001 45 34980ft 528kts
01-Apr-18 00:04 42.712604 -114.511129 46 34982ft 529kts
01-Apr-18 00:05 42.802652 -114.351934 46 34978ft 529kts
01-Apr-18 00:06 42.892204 -114.193364 46 34971ft 528kts
01-Apr-18 00:07 42.981011 -114.034121 46 34965ft 528kts
01-Apr-18 00:08 43.058595 -113.860380 58 34961ft 541kts
01-Apr-18 00:09 43.128067 -113.678681 57 34954ft 539kts
01-Apr-18 00:10 43.199401 -113.498753 56 34955ft 537kts
01-Apr-18 00:11 43.270975 -113.318132 57 34966ft 538kts
01-Apr-18 00:12 43.342156 -113.136410 57 36540ft 538kts
01-Apr-18 00:13 43.412940 -112.954454 57 37063ft 540kts
01-Apr-18 00:14 43.483765 -112.771172 58 37064ft 541kts
01-Apr-18 00:15 43.554194 -112.587799 58 37071ft 543kts
01-Apr-18 00:16 43.624761 -112.402825 58 37074ft 544kts
01-Apr-18 00:17 43.694867 -112.217841 58 37074ft 544kts
01-Apr-18 00:18 43.764737 -112.032251 58 37069ft 544kts
01-Apr-18 00:19 43.834517 -111.845683 59 37061ft 545kts
01-Apr-18 00:20 43.903845 -111.659071 59 37060ft 546kts
01-Apr-18 00:21 43.972935 -111.471845 59 37066ft 546kts
01-Apr-18 00:22 44.042122 -111.283072 59 37070ft 546kts
01-Apr-18 00:23 44.110625 -111.094892 59 37070ft 547kts
01-Apr-18 00:24 44.178945 -110.905922 59 37058ft 548kts
01-Apr-18 00:25 44.247388 -110.715299 59 37053ft 550kts
01-Apr-18 00:26 44.315546 -110.524143 59 37048ft 551kts
01-Apr-18 00:27 44.383870 -110.332414 59 37054ft 552kts
01-Apr-18 00:28 44.451705 -110.138725 60 37056ft 554kts
01-Apr-18 00:29 44.519986 -109.945942 57 37069ft 551kts
01-Apr-18 00:30 44.596036 -109.758429 56 37106ft 552kts
01-Apr-18 00:31 44.670611 -109.570417 56 37132ft 551kts
01-Apr-18 00:32 44.745570 -109.383241 56 37145ft 550kts
01-Apr-18 00:33 44.819781 -109.194546 56 37148ft 549kts
01-Apr-18 00:34 44.893318 -109.006037 56 37142ft 549kts
01-Apr-18 00:35 44.966488 -108.817160 56 37142ft 549kts
01-Apr-18 00:36 45.039651 -108.627009 56 37153ft 550kts
01-Apr-18 00:37 45.112264 -108.436977 56 37176ft 549kts
01-Apr-18 00:38 45.184504 -108.246618 56 37198ft 549kts
01-Apr-18 00:39 45.256657 -108.055164 57 37217ft 548kts
01-Apr-18 00:40 45.328149 -107.864130 56 37250ft 549kts
01-Apr-18 00:41 45.399397 -107.672427 57 37249ft 549kts
01-Apr-18 00:42 45.470574 -107.479548 57 37254ft 549kts
01-Apr-18 00:43 45.541192 -107.286825 57 37257ft 549kts
01-Apr-18 00:44 45.611791 -107.092773 57 37261ft 550kts
01-Apr-18 00:45 45.681908 -106.898660 57 37257ft 550kts
01-Apr-18 00:46 45.751659 -106.704155 57 37277ft 550kts
01-Apr-18 00:47 45.821352 -106.508406 57 37304ft 550kts
01-Apr-18 00:48 45.890758 -106.313491 57 37316ft 550kts
01-Apr-18 00:49 45.959137 -106.117550 57 37326ft 549kts
01-Apr-18 00:50 46.025304 -105.918752 62 37335ft 553kts
01-Apr-18 00:51 46.081201 -105.712565 63 37341ft 553kts
01-Apr-18 00:52 46.138338 -105.506222 62 37342ft 551kts
01-Apr-18 00:53 46.196097 -105.301637 62 37341ft 552kts
01-Apr-18 00:54 46.252798 -105.096272 62 37330ft 551kts
01-Apr-18 00:55 46.309172 -104.890086 63 37325ft 551kts
01-Apr-18 00:56 46.365075 -104.683811 63 37334ft 551kts
01-Apr-18 00:57 46.420638 -104.476988 63 37330ft 552kts
01-Apr-18 00:58 46.476123 -104.268657 63 37313ft 553kts
01-Apr-18 00:59 46.531104 -104.060361 63 37318ft 553kts
01-Apr-18 01:00 46.585732 -103.851545 63 37323ft 554kts
01-Apr-18 01:01 46.640177 -103.641551 63 37327ft 553kts
01-Apr-18 01:02 46.693933 -103.432323 63 37332ft 553kts
01-Apr-18 01:03 46.747284 -103.222761 63 37327ft 552kts
01-Apr-18 01:04 46.800680 -103.012642 64 37322ft 551kts
01-Apr-18 01:05 46.852829 -102.802637 64 37320ft 551kts
01-Apr-18 01:06 46.918123 -102.602586 54 37322ft 542kts
01-Apr-18 01:07 46.987991 -102.407133 55 37324ft 542kts
01-Apr-18 01:08 47.057012 -102.210860 55 37328ft 542kts
01-Apr-18 01:09 47.125657 -102.013750 56 37332ft 541kts
01-Apr-18 01:10 47.193310 -101.816853 56 37334ft 539kts
01-Apr-18 01:11 47.260449 -101.619854 56 37334ft 539kts
01-Apr-18 01:12 47.327515 -101.421556 56 37330ft 539kts
01-Apr-18 01:13 47.393940 -101.223652 56 37323ft 539kts
01-Apr-18 01:14 47.460049 -101.025167 56 37323ft 538kts
01-Apr-18 01:15 47.525941 -100.825803 56 37322ft 539kts
01-Apr-18 01:16 47.591275 -100.626585 57 37320ft 538kts
01-Apr-18 01:17 47.656301 -100.426754 57 37304ft 536kts
01-Apr-18 01:18 47.720632 -100.227492 57 37293ft 535kts
01-Apr-18 01:19 47.784499 -100.028132 58 37290ft 534kts
01-Apr-18 01:20 47.848147 -99.827869 58 37289ft 534kts
01-Apr-18 01:21 47.911302 -99.627572 58 37284ft 535kts
01-Apr-18 01:22 47.974158 -99.426629 58 37263ft 536kts
01-Apr-18 01:23 48.037014 -99.224055 58 37242ft 534kts
01-Apr-18 01:24 48.098918 -99.022942 58 37231ft 533kts
01-Apr-18 01:25 48.160537 -98.821121 59 37229ft 533kts
01-Apr-18 01:26 48.221987 -98.618195 59 37228ft 534kts
01-Apr-18 01:27 48.282963 -98.415175 59 37224ft 534kts
01-Apr-18 01:28 48.343627 -98.211516 59 37210ft 535kts
01-Apr-18 01:29 48.404188 -98.006491 59 37202ft 535kts
01-Apr-18 01:30 48.464176 -97.801707 59 37181ft 535kts
01-Apr-18 01:31 48.523914 -97.596034 60 37179ft 534kts
01-Apr-18 01:32 48.582938 -97.391085 60 37178ft 533kts
01-Apr-18 01:33 48.641548 -97.185841 60 37178ft 532kts
01-Apr-18 01:34 48.699972 -96.979479 60 37171ft 532kts
01-Apr-18 01:35 48.757792 -96.773477 60 37170ft 532kts
01-Apr-18 01:36 48.815274 -96.566899 61 37165ft 532kts
01-Apr-18 01:37 48.872513 -96.359380 61 37147ft 532kts
01-Apr-18 01:38 48.929193 -96.152063 61 37131ft 531kts
01-Apr-18 01:39 48.985478 -95.944380 61 37128ft 531kts
01-Apr-18 01:40 49.041416 -95.736121 61 37127ft 530kts
01-Apr-18 01:41 49.087588 -95.562801 62 37115ft 529kts
01-Apr-18 01:42 49.142611 -95.354546 62 37107ft 530kts
01-Apr-18 01:43 49.206675 -95.109661 62 37079ft 533kts
01-Apr-18 01:44 49.261175 -94.899280 63 37062ft 532kts
01-Apr-18 01:45 49.315501 -94.687607 63 37061ft 533kts
01-Apr-18 01:46 49.360315 -94.511519 63 37054ft 532kts
01-Apr-18 01:47 49.414102 -94.300016 63 37042ft 533kts
01-Apr-18 01:48 49.466950 -94.087052 63 37034ft 532kts
01-Apr-18 01:49 49.537014 -93.891086 50 37031ft 520kts
01-Apr-18 01:50 49.614596 -93.702895 52 37027ft 521kts
01-Apr-18 01:51 49.691210 -93.512247 51 37021ft 521kts
01-Apr-18 01:52 49.767551 -93.321396 52 37011ft 523kts
01-Apr-18 01:53 49.843188 -93.129507 52 36989ft 522kts
01-Apr-18 01:54 49.918686 -92.936416 53 36989ft 522kts
01-Apr-18 01:55 49.993551 -92.743513 53 36988ft 522kts
01-Apr-18 01:56 50.067938 -92.550420 53 36984ft 520kts
01-Apr-18 01:57 50.142099 -92.356468 54 36974ft 520kts
01-Apr-18 01:58 50.215872 -92.162090 54 36970ft 521kts
01-Apr-18 01:59 50.289618 -91.966318 54 36969ft 521kts
01-Apr-18 02:00 50.362739 -91.770729 54 36967ft 521kts
01-Apr-18 02:01 50.435519 -91.574576 54 36963ft 521kts
01-Apr-18 02:02 50.508137 -91.377349 55 36958ft 520kts
01-Apr-18 02:03 50.580189 -91.180168 55 36952ft 521kts
01-Apr-18 02:04 50.651898 -90.982403 55 36947ft 520kts
01-Apr-18 02:05 50.723543 -90.783277 55 36939ft 521kts
01-Apr-18 02:06 50.794632 -90.584146 56 36934ft 521kts
01-Apr-18 02:07 50.865725 -90.384787 56 36930ft 521kts
01-Apr-18 02:08 50.936278 -90.183534 56 36928ft 521kts
01-Apr-18 02:09 51.006951 -89.983389 53 36923ft 518kts
01-Apr-18 02:10 51.091849 -89.799998 48 36922ft 515kts
01-Apr-18 02:11 51.177638 -89.616611 49 36920ft 515kts
01-Apr-18 02:12 51.262985 -89.433543 49 36917ft 515kts
01-Apr-18 02:13 51.348061 -89.248934 49 36907ft 515kts
01-Apr-18 02:14 51.432383 -89.063808 50 36901ft 515kts
01-Apr-18 02:15 51.516388 -88.877952 50 36861ft 515kts
01-Apr-18 02:16 51.600397 -88.690731 50 36848ft 515kts
01-Apr-18 02:17 51.683750 -88.503617 50 36837ft 515kts
01-Apr-18 02:18 51.766789 -88.315854 51 36827ft 514kts
01-Apr-18 02:19 51.849786 -88.126805 51 36819ft 514kts
01-Apr-18 02:20 51.932161 -87.937785 52 36814ft 514kts
01-Apr-18 02:21 52.014280 -87.747970 52 36812ft 514kts
01-Apr-18 02:22 52.096332 -87.556900 52 36813ft 514kts
01-Apr-18 02:23 52.177801 -87.365767 52 36815ft 514kts
01-Apr-18 02:24 52.259203 -87.173351 53 36813ft 514kts
01-Apr-18 02:25 52.340044 -86.980828 53 36815ft 515kts
01-Apr-18 02:26 52.420566 -86.787613 53 36809ft 514kts
01-Apr-18 02:27 52.501066 -86.592963 53 36806ft 515kts
01-Apr-18 02:28 52.581035 -86.398135 53 36811ft 515kts
01-Apr-18 02:29 52.660666 -86.202633 54 36813ft 515kts
01-Apr-18 02:30 52.740329 -86.005539 54 36820ft 515kts
01-Apr-18 02:31 52.819369 -85.808456 54 36822ft 515kts
01-Apr-18 02:32 52.898058 -85.610722 54 36823ft 515kts
01-Apr-18 02:33 52.976582 -85.411849 55 36826ft 514kts
01-Apr-18 02:34 53.054496 -85.212959 55 36848ft 513kts
01-Apr-18 02:35 53.132004 -85.013549 55 36852ft 514kts
01-Apr-18 02:36 53.209501 -84.812572 55 36857ft 514kts
01-Apr-18 02:37 53.286603 -84.611013 56 36861ft 514kts
01-Apr-18 02:38 53.363142 -84.409317 56 36865ft 514kts
01-Apr-18 02:39 53.439290 -84.207030 56 36869ft 513kts
01-Apr-18 02:40 53.515339 -84.003361 56 36873ft 514kts
01-Apr-18 02:41 53.590832 -83.799527 57 36876ft 514kts
01-Apr-18 02:42 53.665970 -83.594984 57 36878ft 514kts
01-Apr-18 02:43 53.741023 -83.388982 57 36880ft 514kts
01-Apr-18 02:44 53.815453 -83.182994 58 36885ft 514kts
01-Apr-18 02:45 53.889842 -82.975397 58 36885ft 515kts
01-Apr-18 02:46 53.963757 -82.767382 58 36885ft 515kts
01-Apr-18 02:47 54.037212 -82.558924 58 36883ft 513kts
01-Apr-18 02:48 54.110410 -82.349414 59 36888ft 514kts
01-Apr-18 02:49 54.183059 -82.139703 59 36886ft 515kts
01-Apr-18 02:50 54.255473 -81.928874 59 36884ft 515kts
01-Apr-18 02:51 54.327719 -81.716718 59 36881ft 514kts
01-Apr-18 02:52 54.399250 -81.504828 60 36879ft 514kts
01-Apr-18 02:53 54.470389 -81.292261 60 36876ft 514kts
01-Apr-18 02:54 54.541373 -81.078291 60 36873ft 513kts
01-Apr-18 02:55 54.611583 -80.864788 60 36870ft 513kts
01-Apr-18 02:56 54.681434 -80.650493 60 36841ft 512kts
01-Apr-18 02:57 54.751489 -80.435006 60 36839ft 513kts
01-Apr-18 02:58 54.820632 -80.218931 61 36835ft 512kts
01-Apr-18 02:59 54.889010 -80.002394 61 36833ft 512kts
01-Apr-18 03:00 54.966400 -79.793517 56 36833ft 513kts
01-Apr-18 03:01 55.044546 -79.586118 57 36832ft 512kts
01-Apr-18 03:02 55.122796 -79.377874 56 36833ft 512kts
01-Apr-18 03:03 55.200447 -79.169573 57 36835ft 512kts
01-Apr-18 03:04 55.277294 -78.960107 58 36836ft 511kts
01-Apr-18 03:05 55.353972 -78.749094 58 36844ft 511kts
01-Apr-18 03:06 55.429952 -78.538171 58 36843ft 511kts
01-Apr-18 03:07 55.505524 -78.326559 58 36842ft 510kts
01-Apr-18 03:08 55.580897 -78.113672 59 36841ft 510kts
01-Apr-18 03:09 55.655626 -77.900725 59 36843ft 509kts
01-Apr-18 03:10 55.729939 -77.687109 59 36841ft 509kts
01-Apr-18 03:11 55.804128 -77.471978 59 36842ft 509kts
01-Apr-18 03:12 55.877700 -77.256701 59 36844ft 510kts
01-Apr-18 03:13 55.950870 -77.040694 60 36841ft 509kts
01-Apr-18 03:14 56.023872 -76.823286 60 36841ft 509kts
01-Apr-18 03:15 56.095956 -76.606591 60 36842ft 507kts
01-Apr-18 03:16 56.167917 -76.388335 61 36843ft 507kts
01-Apr-18 03:17 56.239267 -76.169945 61 36844ft 508kts
01-Apr-18 03:18 56.310273 -75.950625 61 36844ft 507kts
01-Apr-18 03:19 56.381051 -75.729981 61 36845ft 507kts
01-Apr-18 03:20 56.451107 -75.509553 61 36861ft 506kts
01-Apr-18 03:21 56.520657 -75.288686 62 36864ft 506kts
01-Apr-18 03:22 56.589950 -75.066562 62 36868ft 504kts
01-Apr-18 03:23 56.658511 -74.844716 62 36872ft 504kts
01-Apr-18 03:24 56.726594 -74.622332 62 36876ft 503kts
01-Apr-18 03:25 56.794469 -74.398523 63 36880ft 503kts
01-Apr-18 03:26 56.861718 -74.174644 63 36885ft 503kts
01-Apr-18 03:27 56.928521 -73.950125 63 36890ft 502kts
01-Apr-18 03:28 56.994995 -73.724529 64 36896ft 502kts
01-Apr-18 03:29 57.060760 -73.499177 64 36921ft 501kts
01-Apr-18 03:30 57.126253 -73.272565 64 36929ft 500kts
01-Apr-18 03:31 57.191086 -73.046031 65 36935ft 500kts
01-Apr-18 03:32 57.255443 -72.818928 65 36942ft 499kts
01-Apr-18 03:33 57.319489 -72.590683 65 36949ft 499kts
01-Apr-18 03:34 57.382809 -72.362776 66 36956ft 497kts
01-Apr-18 03:35 57.445565 -72.134627 66 36963ft 496kts
01-Apr-18 03:36 57.508143 -71.904816 66 37554ft 498kts
01-Apr-18 03:37 57.570021 -71.675277 66 38952ft 498kts
01-Apr-18 03:38 57.631426 -71.445176 66 38970ft 496kts
01-Apr-18 03:39 57.692574 -71.213667 66 38978ft 496kts
01-Apr-18 03:40 57.753069 -70.982264 67 38986ft 496kts
01-Apr-18 03:41 57.813152 -70.750060 67 38994ft 495kts
01-Apr-18 03:42 57.872895 -70.516725 67 39000ft 494kts
01-Apr-18 03:43 57.931926 -70.283761 68 39008ft 493kts
01-Apr-18 03:44 57.990642 -70.049545 68 39010ft 493kts
01-Apr-18 03:45 58.048715 -69.815444 68 39011ft 493kts
01-Apr-18 03:46 58.106320 -69.580730 68 39010ft 493kts
01-Apr-18 03:47 58.163632 -69.344685 68 39004ft 492kts
01-Apr-18 03:48 58.220273 -69.108856 69 39002ft 492kts
01-Apr-18 03:49 58.276388 -68.872665 69 39000ft 491kts
01-Apr-18 03:50 58.332228 -68.635030 69 38999ft 491kts
01-Apr-18 03:51 58.387465 -68.397353 69 38997ft 491kts
01-Apr-18 03:52 58.442247 -68.158985 69 38994ft 491kts
01-Apr-18 03:53 58.496727 -67.919253 70 38988ft 491kts
01-Apr-18 03:54 58.550581 -67.679584 70 38979ft 490kts
01-Apr-18 03:55 58.604631 -67.440076 70 38970ft 490kts
01-Apr-18 03:56 58.657171 -67.198435 71 38950ft 489kts
01-Apr-18 03:57 58.709329 -66.957291 71 38922ft 489kts
01-Apr-18 03:58 58.761685 -66.715217 71 38830ft 489kts
01-Apr-18 03:59 58.804621 -66.513602 71 38788ft 488kts
01-Apr-18 04:00 58.865512 -66.231749 71 38742ft 488kts
01-Apr-18 04:01 58.917290 -65.988642 71 38704ft 487kts
01-Apr-18 04:02 58.959527 -65.786390 72 38674ft 487kts
01-Apr-18 04:03 59.009768 -65.542996 72 38626ft 486kts
01-Apr-18 04:04 59.059670 -65.298274 72 38600ft 486kts
01-Apr-18 04:05 59.117102 -65.012895 72 38573ft 486kts
01-Apr-18 04:06 59.166307 -64.768009 72 38555ft 486kts
01-Apr-18 04:07 59.206681 -64.562541 73 38534ft 485kts
01-Apr-18 04:08 59.253934 -64.316439 73 38527ft 484kts
01-Apr-18 04:09 59.305085 -64.072300 70 38518ft 486kts
01-Apr-18 04:10 59.358643 -63.828594 71 38514ft 486kts
01-Apr-18 04:11 59.411159 -63.584783 70 38512ft 486kts
01-Apr-18 04:12 59.465038 -63.341403 71 38510ft 486kts
01-Apr-18 04:13 59.517324 -63.096476 71 38513ft 481kts
01-Apr-18 04:14 59.568480 -62.853153 71 38512ft 481kts
01-Apr-18 04:15 59.619290 -62.608461 71 38511ft 480kts
01-Apr-18 04:16 59.669407 -62.364179 71 38494ft 480kts
01-Apr-18 04:17 59.719002 -62.119497 72 38493ft 479kts
01-Apr-18 04:18 59.768255 -61.873516 72 38493ft 479kts
01-Apr-18 04:19 59.816875 -61.627688 72 38490ft 479kts
01-Apr-18 04:20 59.865007 -61.381286 72 38488ft 478kts
01-Apr-18 04:21 59.912861 -61.133221 72 38488ft 479kts
01-Apr-18 04:22 59.960097 -60.885242 73 38490ft 479kts
01-Apr-18 04:23 60.006824 -60.636800 73 38492ft 477kts
01-Apr-18 04:24 60.053140 -60.387325 73 38510ft 478kts
01-Apr-18 04:25 60.098859 -60.137854 73 38515ft 477kts
01-Apr-18 04:26 60.144238 -59.886974 73 38520ft 477kts
01-Apr-18 04:27 60.188990 -59.636257 74 38525ft 477kts
01-Apr-18 04:28 60.233230 -59.385068 74 38531ft 477kts
01-Apr-18 04:29 60.277143 -59.132361 74 38532ft 477kts
01-Apr-18 04:30 60.320352 -58.880282 74 38509ft 476kts
01-Apr-18 04:31 60.363073 -58.627645 74 38515ft 476kts
01-Apr-18 04:32 60.406104 -58.374097 75 38518ft 475kts
01-Apr-18 04:33 60.447274 -58.119967 75 38559ft 476kts
01-Apr-18 04:34 60.482336 -57.862983 82 38567ft 471kts
01-Apr-18 04:35 60.504693 -57.600860 83 38573ft 470kts
01-Apr-18 04:36 60.527672 -57.339707 83 38579ft 470kts
01-Apr-18 04:37 60.552881 -57.079294 82 38640ft 470kts
01-Apr-18 04:38 60.576803 -56.817173 82 38672ft 470kts
01-Apr-18 04:39 60.599711 -56.555989 83 38673ft 469kts
01-Apr-18 04:40 60.622120 -56.293720 83 38681ft 469kts
01-Apr-18 04:41 60.643904 -56.032297 83 38634ft 468kts
01-Apr-18 04:42 60.665152 -55.770846 83 38685ft 468kts
01-Apr-18 04:43 60.685975 -55.507970 84 38693ft 468kts
01-Apr-18 04:44 60.706202 -55.245824 84 38698ft 468kts
01-Apr-18 04:45 60.725910 -54.983419 84 38703ft 468kts
01-Apr-18 04:46 60.745177 -54.719781 84 38708ft 468kts
01-Apr-18 04:47 60.763852 -54.456774 84 38715ft 468kts
01-Apr-18 04:48 60.782003 -54.193633 84 38720ft 467kts
01-Apr-18 04:49 60.799699 -53.929287 85 38725ft 467kts
01-Apr-18 04:50 60.816834 -53.665346 85 38730ft 468kts
01-Apr-18 04:51 60.833445 -53.401159 85 38734ft 468kts
01-Apr-18 04:52 60.849589 -53.135852 85 38738ft 468kts
01-Apr-18 04:53 60.865170 -52.870973 85 38742ft 468kts
01-Apr-18 04:54 60.880285 -52.604863 86 38738ft 468kts
01-Apr-18 04:55 60.894834 -52.339265 86 38797ft 469kts
01-Apr-18 04:56 60.908880 -52.073042 86 38799ft 469kts
01-Apr-18 04:57 60.922437 -51.805790 86 38800ft 469kts
01-Apr-18 04:58 60.935424 -51.539217 86 38834ft 469kts
01-Apr-18 04:59 60.947903 -51.272051 86 38809ft 470kts
01-Apr-18 05:00 60.959887 -51.003891 86 38810ft 469kts
01-Apr-18 05:01 60.971309 -50.736347 87 38811ft 470kts
01-Apr-18 05:02 60.983142 -50.468697 87 38811ft 470kts
01-Apr-18 05:03 60.992878 -50.199704 87 38812ft 470kts
01-Apr-18 05:04 61.002466 -49.931411 87 38812ft 470kts
01-Apr-18 05:05 61.011343 -49.661742 88 38813ft 471kts
01-Apr-18 05:06 61.019345 -49.392826 88 38814ft 470kts
01-Apr-18 05:07 61.028552 -49.123888 87 38813ft 470kts
01-Apr-18 05:08 61.037375 -48.853846 88 38814ft 471kts
01-Apr-18 05:09 61.044906 -48.584452 88 38814ft 471kts
01-Apr-18 05:10 61.051807 -48.314879 88 38814ft 471kts
01-Apr-18 05:11 61.058175 -48.044233 88 38815ft 471kts
01-Apr-18 05:12 61.063989 -47.774058 88 38815ft 472kts
01-Apr-18 05:13 61.069266 -47.503657 89 38815ft 472kts
01-Apr-18 05:14 61.074019 -47.232121 89 38815ft 472kts
01-Apr-18 05:15 61.078215 -46.961327 89 38816ft 472kts
01-Apr-18 05:16 61.081877 -46.690123 89 38816ft 473kts
01-Apr-18 05:17 61.085000 -46.417819 90 38816ft 473kts
01-Apr-18 05:18 61.087574 -46.146177 90 38816ft 473kts
01-Apr-18 05:19 61.089609 -45.873389 90 38816ft 474kts
01-Apr-18 05:20 61.091092 -45.601260 90 38816ft 474kts
01-Apr-18 05:21 61.092026 -45.328999 90 38816ft 474kts
01-Apr-18 05:22 61.092415 -45.055846 91 38818ft 474kts
01-Apr-18 05:23 61.092252 -44.783345 91 38817ft 475kts
01-Apr-18 05:24 61.091541 -44.510847 91 38818ft 475kts
01-Apr-18 05:25 61.090277 -44.237207 91 38820ft 475kts
01-Apr-18 05:26 61.088465 -43.964436 91 38822ft 475kts
01-Apr-18 05:27 61.086103 -43.691421 91 38825ft 476kts
01-Apr-18 05:28 61.083176 -43.417425 92 38828ft 476kts
01-Apr-18 05:29 61.079708 -43.144351 92 38832ft 476kts
01-Apr-18 05:30 61.075686 -42.871102 92 38836ft 476kts
01-Apr-18 05:31 61.071095 -42.596938 92 38841ft 477kts
01-Apr-18 05:32 61.065963 -42.323413 93 38847ft 477kts
01-Apr-18 05:33 61.060253 -42.049033 93 38853ft 477kts
01-Apr-18 05:34 61.054001 -41.775307 93 38859ft 478kts
01-Apr-18 05:35 61.047164 -41.500364 93 38866ft 478kts
01-Apr-18 05:36 61.039800 -41.226672 93 38873ft 478kts
01-Apr-18 05:37 61.031874 -40.952751 93 38880ft 479kts
01-Apr-18 05:38 61.023362 -40.677871 93 38888ft 479kts
01-Apr-18 05:39 61.015106 -40.403577 94 38896ft 480kts
01-Apr-18 05:40 61.004859 -40.129583 94 38903ft 480kts
01-Apr-18 05:41 60.992017 -39.855078 97 38911ft 481kts
01-Apr-18 05:42 60.973244 -39.582600 98 38918ft 481kts
01-Apr-18 05:43 60.954363 -39.310240 98 38927ft 481kts
01-Apr-18 05:44 60.937682 -39.036463 97 38934ft 481kts
01-Apr-18 05:45 60.919363 -38.764120 97 38941ft 481kts
01-Apr-18 05:46 60.900077 -38.491295 98 38948ft 481kts
01-Apr-18 05:47 60.880263 -38.219756 98 38955ft 481kts
01-Apr-18 05:48 60.859887 -37.948464 98 38974ft 481kts
01-Apr-18 05:49 60.838858 -37.676141 98 38984ft 483kts
01-Apr-18 05:50 60.817306 -37.404495 98 38990ft 483kts
01-Apr-18 05:51 60.795219 -37.133416 99 38996ft 483kts
01-Apr-18 05:52 60.772473 -36.861362 99 39151ft 484kts
01-Apr-18 05:53 60.749234 -36.590328 99 39160ft 485kts
01-Apr-18 05:54 60.725328 -36.318341 99 39159ft 485kts
01-Apr-18 05:55 60.700950 -36.047617 99 39157ft 485kts
01-Apr-18 05:56 60.676008 -35.777122 99 39155ft 486kts
01-Apr-18 05:57 60.650414 -35.505890 100 39154ft 486kts
01-Apr-18 05:58 60.624349 -35.235927 100 39151ft 487kts
01-Apr-18 05:59 60.597707 -34.966012 100 39150ft 487kts
01-Apr-18 06:00 60.570388 -34.695267 100 39147ft 488kts
01-Apr-18 06:01 60.542588 -34.425604 100 39145ft 489kts
01-Apr-18 06:02 60.514201 -34.155978 101 39143ft 489kts
01-Apr-18 06:03 60.485149 -33.885711 101 39140ft 489kts
01-Apr-18 06:04 60.455626 -33.616600 101 39138ft 490kts
01-Apr-18 06:05 60.425552 -33.347886 101 39136ft 490kts
01-Apr-18 06:06 60.394817 -33.078596 101 39134ft 491kts
01-Apr-18 06:07 60.363604 -32.810436 101 39130ft 491kts
01-Apr-18 06:08 60.331696 -32.541442 102 39128ft 492kts
01-Apr-18 06:09 60.299326 -32.273626 102 39126ft 493kts
01-Apr-18 06:10 60.266351 -32.005805 102 39123ft 493kts
01-Apr-18 06:11 60.232730 -31.737674 102 39120ft 493kts
01-Apr-18 06:12 60.198686 -31.470981 103 39118ft 493kts
01-Apr-18 06:13 60.164109 -31.204858 103 39117ft 493kts
01-Apr-18 06:14 60.128811 -30.937858 103 39200ft 494kts
01-Apr-18 06:15 60.093081 -30.672179 103 39199ft 494kts
01-Apr-18 06:16 60.057555 -30.406255 104 39199ft 495kts
01-Apr-18 06:17 60.019907 -30.140315 104 39198ft 496kts
01-Apr-18 06:18 59.981284 -29.876263 105 39197ft 496kts
01-Apr-18 06:19 59.939742 -29.613989 106 39196ft 496kts
01-Apr-18 06:20 59.897516 -29.351298 106 39195ft 497kts
01-Apr-18 06:21 59.857351 -29.088342 105 39171ft 497kts
01-Apr-18 06:22 59.822405 -28.869177 106 39170ft 498kts
01-Apr-18 06:23 59.779743 -28.607360 106 39168ft 499kts
01-Apr-18 06:24 59.729240 -28.302698 106 39167ft 499kts
01-Apr-18 06:25 59.685218 -28.041308 107 39165ft 499kts
01-Apr-18 06:26 59.648248 -27.824661 107 39164ft 499kts
01-Apr-18 06:27 59.603421 -27.565350 107 39163ft 499kts
01-Apr-18 06:28 59.557883 -27.305618 107 39161ft 500kts
01-Apr-18 06:29 59.511954 -27.047250 107 39161ft 500kts
01-Apr-18 06:30 59.465457 -26.789286 108 39158ft 501kts
01-Apr-18 06:31 59.418304 -26.531199 108 39157ft 501kts
01-Apr-18 06:32 59.370764 -26.274500 108 39155ft 501kts
01-Apr-18 06:33 59.322563 -26.017678 108 39153ft 501kts
01-Apr-18 06:34 59.273975 -25.762196 109 39151ft 502kts
01-Apr-18 06:35 59.224686 -25.506403 109 39147ft 502kts
01-Apr-18 06:36 59.175045 -25.252105 109 39145ft 502kts
01-Apr-18 06:37 59.124872 -24.998369 110 39143ft 502kts
01-Apr-18 06:38 59.074024 -24.744470 110 39141ft 503kts
01-Apr-18 06:39 59.022827 -24.492043 110 39139ft 502kts
01-Apr-18 06:40 58.971235 -24.240827 110 39136ft 502kts
01-Apr-18 06:41 58.918900 -23.989114 111 39135ft 503kts
01-Apr-18 06:42 58.866172 -23.738642 111 39131ft 503kts
01-Apr-18 06:43 58.812971 -23.488963 111 39107ft 504kts
01-Apr-18 06:44 58.759094 -23.239161 111 39063ft 503kts
01-Apr-18 06:45 58.704940 -22.991062 112 39061ft 503kts
01-Apr-18 06:46 58.650105 -22.742805 112 39059ft 503kts
01-Apr-18 06:47 58.595014 -22.496313 112 39085ft 503kts
01-Apr-18 06:48 58.539415 -22.250433 112 39099ft 503kts
01-Apr-18 06:49 58.483103 -22.004259 113 39097ft 504kts
01-Apr-18 06:50 58.426470 -21.759525 113 39094ft 504kts
01-Apr-18 06:51 58.369390 -21.515651 113 39092ft 504kts
01-Apr-18 06:52 58.311643 -21.271695 113 39090ft 504kts
01-Apr-18 06:53 58.253629 -21.029338 113 39087ft 504kts
01-Apr-18 06:54 58.195172 -20.787839 114 39083ft 504kts
01-Apr-18 06:55 58.136074 -20.546229 114 39079ft 504kts
01-Apr-18 06:56 58.077192 -20.305889 114 39077ft 504kts
01-Apr-18 06:57 58.016938 -20.067084 114 39071ft 504kts
01-Apr-18 06:58 57.965985 -19.820636 106 38974ft 504kts
01-Apr-18 06:59 57.922400 -19.570220 108 38969ft 504kts
01-Apr-18 07:00 57.877110 -19.320326 107 38966ft 504kts
01-Apr-18 07:01 57.832785 -19.071018 108 38964ft 504kts
01-Apr-18 07:02 57.786879 -18.822658 108 38961ft 505kts
01-Apr-18 07:03 57.740191 -18.573998 108 38959ft 505kts
01-Apr-18 07:04 57.693142 -18.326714 109 38957ft 506kts
01-Apr-18 07:05 57.645533 -18.079664 109 38954ft 506kts
01-Apr-18 07:06 57.597283 -17.832455 109 38951ft 506kts
01-Apr-18 07:07 57.548751 -17.586895 110 38948ft 505kts
01-Apr-18 07:08 57.499585 -17.341208 110 38945ft 505kts
01-Apr-18 07:09 57.450162 -17.097255 110 38943ft 505kts
01-Apr-18 07:10 57.400279 -16.854010 110 38940ft 505kts
01-Apr-18 07:11 57.349793 -16.610776 111 38936ft 504kts
01-Apr-18 07:12 57.299011 -16.369019 111 38933ft 504kts
01-Apr-18 07:13 57.247772 -16.127954 111 38930ft 504kts
01-Apr-18 07:14 57.195925 -15.886865 111 38927ft 505kts
01-Apr-18 07:15 57.143730 -15.646957 112 38924ft 505kts
01-Apr-18 07:16 57.091805 -15.407413 112 38921ft 504kts
01-Apr-18 07:17 57.038121 -15.168666 112 38928ft 504kts
01-Apr-18 07:18 56.994690 -14.925025 96 38933ft 505kts
01-Apr-18 07:19 56.983682 -14.668583 94 38953ft 505kts
01-Apr-18 07:20 56.972304 -14.411445 94 38964ft 505kts
01-Apr-18 07:21 56.958450 -14.155166 95 38965ft 506kts
01-Apr-18 07:22 56.915691 -13.915390 133 38966ft 501kts
01-Apr-18 07:23 56.808103 -13.754933 142 38966ft 500kts
01-Apr-18 07:24 56.704189 -13.586849 139 38966ft 500kts
01-Apr-18 07:25 56.602181 -13.414000 139 38966ft 500kts
01-Apr-18 07:26 56.499711 -13.243536 139 38966ft 500kts
01-Apr-18 07:27 56.396949 -13.074316 139 38966ft 500kts
01-Apr-18 07:28 56.293567 -12.905422 139 38965ft 501kts
01-Apr-18 07:29 56.190318 -12.738030 140 38964ft 500kts
01-Apr-18 07:30 56.086449 -12.570904 140 38963ft 501kts
01-Apr-18 07:31 55.982241 -12.404504 140 40672ft 499kts
01-Apr-18 07:32 55.878275 -12.239718 140 40921ft 500kts
01-Apr-18 07:33 55.773812 -12.075383 140 40918ft 500kts
01-Apr-18 07:34 55.669520 -11.912532 140 40915ft 500kts
01-Apr-18 07:35 55.565066 -11.750630 140 40911ft 499kts
01-Apr-18 07:36 55.460176 -11.589242 140 40906ft 499kts
01-Apr-18 07:37 55.355489 -11.429342 140 40901ft 498kts
01-Apr-18 07:38 55.250729 -11.270487 141 40896ft 498kts
01-Apr-18 07:39 55.145538 -11.112127 141 40892ft 497kts
01-Apr-18 07:40 55.040597 -10.955277 141 40893ft 496kts
01-Apr-18 07:41 54.935563 -10.799403 141 40894ft 496kts
01-Apr-18 07:42 54.830050 -10.643925 142 40893ft 496kts
01-Apr-18 07:43 54.724731 -10.489822 142 40891ft 496kts
01-Apr-18 07:44 54.619190 -10.335611 142 40888ft 495kts
01-Apr-18 07:45 54.513590 -10.183924 142 40884ft 495kts
01-Apr-18 07:46 54.416217 -10.015485 130 40880ft 499kts
01-Apr-18 07:47 54.331673 -9.827091 130 40874ft 498kts
01-Apr-18 07:48 54.245006 -9.641116 130 40874ft 499kts
01-Apr-18 07:49 54.159103 -9.454991 130 40869ft 500kts
01-Apr-18 07:50 54.072112 -9.270355 130 40865ft 500kts
01-Apr-18 07:51 53.984310 -9.085742 131 40858ft 501kts
01-Apr-18 07:52 53.896790 -8.903125 131 40847ft 499kts
01-Apr-18 07:53 53.809016 -8.721325 131 40847ft 499kts
01-Apr-18 07:54 53.720547 -8.539420 131 40845ft 500kts
01-Apr-18 07:55 53.631293 -8.357189 131 40847ft 508kts
01-Apr-18 07:56 53.542042 -8.176399 132 40847ft 494kts
01-Apr-18 07:57 53.453468 -7.998150 132 40854ft 501kts
01-Apr-18 07:58 53.363483 -7.818543 132 40868ft 502kts
01-Apr-18 07:59 53.272984 -7.639063 132 40852ft 502kts
01-Apr-18 08:00 53.183211 -7.462304 132 40857ft 499kts
01-Apr-18 08:01 53.093251 -7.286444 132 40863ft 499kts
01-Apr-18 08:02 53.002810 -7.110886 133 40866ft 498kts
01-Apr-18 08:03 52.912464 -6.936740 133 40877ft 499kts
01-Apr-18 08:04 52.821746 -6.763094 133 40876ft 499kts
01-Apr-18 08:05 52.730530 -6.589704 133 40870ft 499kts
01-Apr-18 08:06 52.639490 -6.417839 133 40863ft 497kts
01-Apr-18 08:07 52.548003 -6.246311 133 40867ft 497kts
01-Apr-18 08:08 52.456587 -6.076060 133 40868ft 497kts
01-Apr-18 08:09 52.365278 -5.906261 134 40871ft 497kts
01-Apr-18 08:10 52.272921 -5.737362 134 40876ft 497kts
01-Apr-18 08:11 52.192148 -5.553705 123 40882ft 502kts
01-Apr-18 08:12 52.119424 -5.359980 124 40907ft 502kts
01-Apr-18 08:13 52.044464 -5.167551 124 40898ft 503kts
01-Apr-18 08:14 51.976952 -4.968551 112 40896ft 508kts
01-Apr-18 08:15 51.932499 -4.751368 110 40899ft 509kts
01-Apr-18 08:16 51.885995 -4.534182 110 40902ft 509kts
01-Apr-18 08:17 51.840135 -4.317403 110 40904ft 510kts
01-Apr-18 08:18 51.792826 -4.100273 110 40903ft 511kts
01-Apr-18 08:19 51.745181 -3.884392 110 40899ft 511kts
01-Apr-18 08:20 51.697686 -3.668674 111 40887ft 512kts
01-Apr-18 08:21 51.648672 -3.452764 111 40882ft 512kts
01-Apr-18 08:22 51.601932 -3.236559 105 40907ft 514kts
01-Apr-18 08:23 51.573217 -3.011536 102 40907ft 514kts
01-Apr-18 08:24 51.542866 -2.786137 103 40907ft 516kts
01-Apr-18 08:25 51.513043 -2.561127 102 40910ft 516kts
01-Apr-18 08:26 51.482329 -2.335667 103 40916ft 516kts
01-Apr-18 08:27 51.450441 -2.111608 103 40929ft 516kts
01-Apr-18 08:28 51.418999 -1.887337 103 40937ft 517kts
01-Apr-18 08:29 51.386101 -1.662629 103 40945ft 517kts
01-Apr-18 08:30 51.353473 -1.438738 103 40950ft 517kts
01-Apr-18 08:31 51.319510 -1.215709 106 40953ft 516kts
01-Apr-18 08:32 51.243991 -1.026216 131 40963ft 510kts
01-Apr-18 08:33 51.159195 -0.844299 130 40953ft 510kts
01-Apr-18 08:34 51.072815 -0.664319 130 40852ft 510kts
01-Apr-18 08:35 50.994617 -0.475869 122 40708ft 514kts
01-Apr-18 08:36 50.920340 -0.282938 123 40335ft 513kts
01-Apr-18 08:37 50.846357 -0.093186 125 38143ft 506kts
01-Apr-18 08:38 50.770545 0.095029 129 35663ft 508kts
01-Apr-18 08:39 50.669191 0.239820 148 33917ft 486kts
01-Apr-18 08:40 50.581691 0.350736 146 32567ft 478kts
01-Apr-18 08:41 50.479734 0.480168 146 31011ft 466kts
01-Apr-18 08:42 50.379969 0.605879 146 29417ft 455kts
01-Apr-18 08:43 50.265350 0.749908 146 27319ft 449kts
01-Apr-18 08:44 50.168576 0.870667 145 25539ft 442kts
01-Apr-18 08:45 50.072671 0.989069 147 23823ft 433kts
01-Apr-18 08:46 49.987241 1.064690 160 22362ft 419kts
01-Apr-18 08:47 49.882399 1.139814 159 20605ft 412kts
01-Apr-18 08:48 49.779239 1.216269 159 18790ft 407kts
01-Apr-18 08:49 49.678156 1.291947 158 17019ft 400kts
01-Apr-18 08:50 49.579300 1.365427 158 15351ft 389kts
01-Apr-18 08:51 49.484272 1.435814 158 13777ft 364kts
01-Apr-18 08:52 49.395965 1.500454 157 12265ft 340kts
01-Apr-18 08:53 49.315104 1.560799 150 11378ft 302kts
01-Apr-18 08:54 49.256819 1.642902 136 10739ft 273kts
01-Apr-18 08:55 49.206014 1.726160 135 9506ft 278kts
01-Apr-18 08:56 49.155087 1.811439 135 8426ft 264kts
01-Apr-18 08:57 49.106859 1.890984 135 7400ft 245kts
01-Apr-18 08:58 49.061940 1.964469 136 6459ft 234kts
01-Apr-18 08:59 49.018894 2.034742 136 5925ft 217kts
01-Apr-18 09:00 48.984435 2.103397 119 5432ft 191kts
01-Apr-18 09:01 48.975444 2.180335 86 4947ft 191kts
01-Apr-18 09:02 48.979820 2.255159 86 4171ft 165kts
01-Apr-18 09:03 48.983521 2.324039 86 3310ft 157kts
01-Apr-18 09:04 48.986889 2.387173 85 2507ft 146kts
01-Apr-18 09:05 48.990120 2.447891 85 1744ft 141kts
01-Apr-18 09:06 48.993263 2.506736 85 1015ft 137kts
01-Apr-18 09:07 48.996322 2.564152 85 407ft 122kts
01-Apr-18 09:08 48.998488 2.584421 65 405ft 15kts
01-Apr-18 09:09 49.000227 2.583785 294 405ft 10kts
01-Apr-18 09:10 49.001450 2.581018 354 405ft 0kts
01-Apr-18 09:11 49.001555 2.581002 354 405ft 0kts
01-Apr-18 09:12 49.001555 2.581002 354 405ft 0kts

Navigation Log

Ident Type
Flight plan parsing failed, navigation log unavailable